sensor_id;sensor_type;location;lat;lon;timestamp;pressure;altitude;pressure_sealevel;temperature;humidity
64683;BME280;51107;47.652;19.016;2022-07-03T00:01:02;100253.81;;;19.44;65.67
64683;BME280;51107;47.652;19.016;2022-07-03T00:03:31;100253.00;;;19.50;65.50
64683;BME280;51107;47.652;19.016;2022-07-03T00:06:00;100253.81;;;19.44;66.02
64683;BME280;51107;47.652;19.016;2022-07-03T00:08:30;100253.00;;;19.50;65.94
64683;BME280;51107;47.652;19.016;2022-07-03T00:10:59;100251.38;;;19.49;66.65
64683;BME280;51107;47.652;19.016;2022-07-03T00:13:27;100250.56;;;19.48;67.16
64683;BME280;51107;47.652;19.016;2022-07-03T00:15:55;100254.03;;;19.56;67.19
64683;BME280;51107;47.652;19.016;2022-07-03T00:18:24;100236.50;;;19.96;65.48
64683;BME280;51107;47.652;19.016;2022-07-03T00:21:00;100246.25;;;19.96;66.35
64683;BME280;51107;47.652;19.016;2022-07-03T00:26:11;100237.75;;;20.41;63.88
64683;BME280;51107;47.652;19.016;2022-07-03T00:28:42;100236.53;;;20.43;64.10
64683;BME280;51107;47.652;19.016;2022-07-03T00:31:11;100239.16;;;20.23;65.04
64683;BME280;51107;47.652;19.016;2022-07-03T00:33:41;100240.78;;;20.11;64.57
64683;BME280;51107;47.652;19.016;2022-07-03T00:36:11;100233.87;;;20.16;65.31
64683;BME280;51107;47.652;19.016;2022-07-03T00:38:40;100236.72;;;20.22;64.96
64683;BME280;51107;47.652;19.016;2022-07-03T00:41:08;100232.47;;;20.07;65.32
64683;BME280;51107;47.652;19.016;2022-07-03T00:43:51;100229.56;;;19.82;66.42
64683;BME280;51107;47.652;19.016;2022-07-03T00:46:22;100235.88;;;19.94;66.15
64683;BME280;51107;47.652;19.016;2022-07-03T00:48:53;100231.22;;;20.16;65.18
64683;BME280;51107;47.652;19.016;2022-07-03T00:51:27;100225.75;;;20.05;65.67
64683;BME280;51107;47.652;19.016;2022-07-03T00:53:58;100223.91;;;20.12;65.73
64683;BME280;51107;47.652;19.016;2022-07-03T00:56:30;100228.38;;;19.98;66.75
64683;BME280;51107;47.652;19.016;2022-07-03T00:59:00;100233.94;;;19.55;68.28
64683;BME280;51107;47.652;19.016;2022-07-03T01:01:30;100231.06;;;19.49;69.32
64683;BME280;51107;47.652;19.016;2022-07-03T01:06:44;100221.19;;;19.72;68.45
64683;BME280;51107;47.652;19.016;2022-07-03T01:09:28;100215.78;;;19.93;67.78
64683;BME280;51107;47.652;19.016;2022-07-03T01:12:13;100208.22;;;19.97;67.47
64683;BME280;51107;47.652;19.016;2022-07-03T01:17:36;100214.47;;;19.69;68.79
64683;BME280;51107;47.652;19.016;2022-07-03T01:20:07;100219.22;;;20.00;67.82
64683;BME280;51107;47.652;19.016;2022-07-03T01:22:48;100217.00;;;20.17;67.22
64683;BME280;51107;47.652;19.016;2022-07-03T01:25:33;100215.75;;;20.00;67.31
64683;BME280;51107;47.652;19.016;2022-07-03T01:28:12;100214.53;;;19.96;67.60
64683;BME280;51107;47.652;19.016;2022-07-03T01:30:52;100216.97;;;20.04;66.72
64683;BME280;51107;47.652;19.016;2022-07-03T01:33:25;100224.31;;;20.09;66.53
64683;BME280;51107;47.652;19.016;2022-07-03T01:36:05;100217.22;;;20.23;66.18
64683;BME280;51107;47.652;19.016;2022-07-03T01:38:37;100210.47;;;20.07;66.96
64683;BME280;51107;47.652;19.016;2022-07-03T01:41:07;100207.41;;;19.90;67.82
64683;BME280;51107;47.652;19.016;2022-07-03T01:43:54;100212.50;;;19.91;68.08
64683;BME280;51107;47.652;19.016;2022-07-03T01:46:28;100211.69;;;19.91;67.77
64683;BME280;51107;47.652;19.016;2022-07-03T01:48:58;100205.38;;;19.85;68.04
64683;BME280;51107;47.652;19.016;2022-07-03T01:51:28;100203.47;;;19.72;68.83
64683;BME280;51107;47.652;19.016;2022-07-03T01:53:59;100203.63;;;19.57;69.36
64683;BME280;51107;47.652;19.016;2022-07-03T01:56:28;100208.88;;;19.37;70.22
64683;BME280;51107;47.652;19.016;2022-07-03T01:59:00;100205.78;;;19.27;70.33
64683;BME280;51107;47.652;19.016;2022-07-03T02:01:36;100196.53;;;19.03;71.68
64683;BME280;51107;47.652;19.016;2022-07-03T02:04:24;100197.16;;;19.05;71.79
64683;BME280;51107;47.652;19.016;2022-07-03T02:07:14;100189.34;;;19.31;70.90
64683;BME280;51107;47.652;19.016;2022-07-03T02:10:01;100203.84;;;19.56;70.03
64683;BME280;51107;47.652;19.016;2022-07-03T02:12:37;100198.16;;;19.52;69.81
64683;BME280;51107;47.652;19.016;2022-07-03T02:15:09;100202.41;;;19.46;70.21
64683;BME280;51107;47.652;19.016;2022-07-03T02:17:43;100202.03;;;19.56;69.68
64683;BME280;51107;47.652;19.016;2022-07-03T02:20:15;100211.94;;;19.47;69.60
64683;BME280;51107;47.652;19.016;2022-07-03T02:22:51;100211.03;;;19.20;71.35
64683;BME280;51107;47.652;19.016;2022-07-03T02:25:26;100204.06;;;19.06;72.33
64683;BME280;51107;47.652;19.016;2022-07-03T02:28:06;100203.19;;;18.92;72.87
64683;BME280;51107;47.652;19.016;2022-07-03T02:30:41;100206.03;;;18.90;73.32
64683;BME280;51107;47.652;19.016;2022-07-03T02:33:11;100205.94;;;19.18;72.31
64683;BME280;51107;47.652;19.016;2022-07-03T02:35:40;100204.16;;;19.32;71.40
64683;BME280;51107;47.652;19.016;2022-07-03T02:38:19;100207.63;;;19.33;71.43
64683;BME280;51107;47.652;19.016;2022-07-03T02:41:03;100202.59;;;18.96;73.29
64683;BME280;51107;47.652;19.016;2022-07-03T02:46:29;100201.28;;;18.85;73.67
64683;BME280;51107;47.652;19.016;2022-07-03T02:51:57;100204.16;;;19.26;71.61
64683;BME280;51107;47.652;19.016;2022-07-03T02:54:32;100199.87;;;19.25;71.89
64683;BME280;51107;47.652;19.016;2022-07-03T02:57:08;100205.56;;;19.22;72.34
64683;BME280;51107;47.652;19.016;2022-07-03T03:08:11;100199.56;;;18.43;76.20
64683;BME280;51107;47.652;19.016;2022-07-03T03:10:40;100206.06;;;18.68;75.14
64683;BME280;51107;47.652;19.016;2022-07-03T03:13:12;100202.44;;;19.05;73.75
64683;BME280;51107;47.652;19.016;2022-07-03T03:15:54;100205.38;;;19.23;72.38
64683;BME280;51107;47.652;19.016;2022-07-03T03:18:28;100207.84;;;19.31;72.10
64683;BME280;51107;47.652;19.016;2022-07-03T03:20:59;100202.94;;;19.28;72.23
64683;BME280;51107;47.652;19.016;2022-07-03T03:23:48;100203.75;;;19.29;73.21
64683;BME280;51107;47.652;19.016;2022-07-03T03:26:19;100209.03;;;19.29;72.31
64683;BME280;51107;47.652;19.016;2022-07-03T03:28:49;100209.66;;;19.31;72.19
64683;BME280;51107;47.652;19.016;2022-07-03T03:31:19;100203.00;;;19.48;71.81
64683;BME280;51107;47.652;19.016;2022-07-03T03:33:50;100209.84;;;19.29;72.44
64683;BME280;51107;47.652;19.016;2022-07-03T03:36:20;100208.75;;;19.10;72.99
64683;BME280;51107;47.652;19.016;2022-07-03T03:38:49;100198.59;;;19.07;72.68
64683;BME280;51107;47.652;19.016;2022-07-03T03:41:17;100210.63;;;19.16;72.66
64683;BME280;51107;47.652;19.016;2022-07-03T03:43:46;100206.34;;;19.15;72.65
64683;BME280;51107;47.652;19.016;2022-07-03T03:46:14;100206.75;;;19.12;72.52
64683;BME280;51107;47.652;19.016;2022-07-03T03:48:43;100206.13;;;19.17;72.68
64683;BME280;51107;47.652;19.016;2022-07-03T03:51:12;100202.16;;;19.34;72.16
64683;BME280;51107;47.652;19.016;2022-07-03T03:53:42;100206.22;;;19.37;72.23
64683;BME280;51107;47.652;19.016;2022-07-03T03:56:12;100205.84;;;19.40;72.20
64683;BME280;51107;47.652;19.016;2022-07-03T03:58:43;100206.97;;;19.17;72.91
64683;BME280;51107;47.652;19.016;2022-07-03T04:01:12;100218.41;;;19.31;72.33
64683;BME280;51107;47.652;19.016;2022-07-03T04:03:41;100214.81;;;19.04;73.77
64683;BME280;51107;47.652;19.016;2022-07-03T04:06:09;100212.53;;;18.94;74.74
64683;BME280;51107;47.652;19.016;2022-07-03T04:08:37;100221.06;;;18.96;75.16
64683;BME280;51107;47.652;19.016;2022-07-03T04:11:06;100223.78;;;19.10;74.80
64683;BME280;51107;47.652;19.016;2022-07-03T04:13:34;100223.56;;;19.05;74.77
64683;BME280;51107;47.652;19.016;2022-07-03T04:16:02;100230.63;;;18.97;75.37
64683;BME280;51107;47.652;19.016;2022-07-03T04:18:31;100227.94;;;18.91;75.27
64683;BME280;51107;47.652;19.016;2022-07-03T04:21:00;100222.53;;;19.06;75.19
64683;BME280;51107;47.652;19.016;2022-07-03T04:23:29;100223.19;;;19.14;74.79
64683;BME280;51107;47.652;19.016;2022-07-03T04:26:05;100222.50;;;19.34;74.41
64683;BME280;51107;47.652;19.016;2022-07-03T04:28:40;100210.69;;;19.37;73.88
64683;BME280;51107;47.652;19.016;2022-07-03T04:31:09;100216.59;;;19.39;73.91
64683;BME280;51107;47.652;19.016;2022-07-03T04:33:37;100212.75;;;19.41;73.88
64683;BME280;51107;47.652;19.016;2022-07-03T04:36:10;100218.25;;;19.53;73.73
64683;BME280;51107;47.652;19.016;2022-07-03T04:38:38;100212.84;;;19.75;73.29
64683;BME280;51107;47.652;19.016;2022-07-03T04:41:06;100211.69;;;19.97;72.89
64683;BME280;51107;47.652;19.016;2022-07-03T04:43:35;100207.22;;;19.91;72.12
64683;BME280;51107;47.652;19.016;2022-07-03T04:46:04;100208.84;;;19.92;72.70
64683;BME280;51107;47.652;19.016;2022-07-03T04:48:32;100202.53;;;20.13;72.35
64683;BME280;51107;47.652;19.016;2022-07-03T04:51:01;100201.34;;;20.29;71.86
64683;BME280;51107;47.652;19.016;2022-07-03T04:53:29;100200.91;;;20.26;71.56
64683;BME280;51107;47.652;19.016;2022-07-03T04:55:58;100203.78;;;20.37;71.44
64683;BME280;51107;47.652;19.016;2022-07-03T04:58:26;100195.63;;;20.39;70.19
64683;BME280;51107;47.652;19.016;2022-07-03T05:00:55;100197.47;;;20.39;70.90
64683;BME280;51107;47.652;19.016;2022-07-03T05:03:23;100192.97;;;20.39;70.70
64683;BME280;51107;47.652;19.016;2022-07-03T05:05:51;100184.25;;;20.25;72.02
64683;BME280;51107;47.652;19.016;2022-07-03T05:08:20;100192.53;;;20.76;71.01
64683;BME280;51107;47.652;19.016;2022-07-03T05:10:48;100188.88;;;20.70;70.10
64683;BME280;51107;47.652;19.016;2022-07-03T05:13:17;100186.06;;;20.45;71.42
64683;BME280;51107;47.652;19.016;2022-07-03T05:15:45;100192.16;;;20.79;70.73
64683;BME280;51107;47.652;19.016;2022-07-03T05:18:13;100194.97;;;20.84;70.91
64683;BME280;51107;47.652;19.016;2022-07-03T05:20:48;100197.03;;;20.75;71.10
64683;BME280;51107;47.652;19.016;2022-07-03T05:23:16;100200.06;;;20.65;68.91
64683;BME280;51107;47.652;19.016;2022-07-03T05:25:47;100193.91;;;20.98;69.87
64683;BME280;51107;47.652;19.016;2022-07-03T05:28:15;100189.72;;;21.29;69.90
64683;BME280;51107;47.652;19.016;2022-07-03T05:30:44;100190.66;;;21.42;69.22
64683;BME280;51107;47.652;19.016;2022-07-03T05:33:12;100191.19;;;21.18;66.40
64683;BME280;51107;47.652;19.016;2022-07-03T05:35:41;100191.44;;;21.10;68.67
64683;BME280;51107;47.652;19.016;2022-07-03T05:38:09;100191.91;;;21.39;67.53
64683;BME280;51107;47.652;19.016;2022-07-03T05:40:37;100188.19;;;21.47;66.19
64683;BME280;51107;47.652;19.016;2022-07-03T05:43:06;100187.06;;;21.29;67.03
64683;BME280;51107;47.652;19.016;2022-07-03T05:45:34;100186.72;;;21.12;67.37
64683;BME280;51107;47.652;19.016;2022-07-03T05:48:02;100187.28;;;21.21;66.99
64683;BME280;51107;47.652;19.016;2022-07-03T05:50:31;100196.44;;;21.32;67.26
64683;BME280;51107;47.652;19.016;2022-07-03T05:52:59;100190.75;;;21.28;67.33
64683;BME280;51107;47.652;19.016;2022-07-03T05:55:27;100191.88;;;21.52;67.58
64683;BME280;51107;47.652;19.016;2022-07-03T05:57:55;100205.72;;;21.61;67.62
64683;BME280;51107;47.652;19.016;2022-07-03T06:00:23;100196.41;;;21.77;65.94
64683;BME280;51107;47.652;19.016;2022-07-03T06:02:52;100196.75;;;21.87;65.97
64683;BME280;51107;47.652;19.016;2022-07-03T06:05:20;100200.50;;;22.05;66.84
64683;BME280;51107;47.652;19.016;2022-07-03T06:07:49;100192.53;;;22.37;65.44
64683;BME280;51107;47.652;19.016;2022-07-03T06:10:18;100203.16;;;22.37;65.21
64683;BME280;51107;47.652;19.016;2022-07-03T06:12:46;100201.88;;;22.39;65.28
64683;BME280;51107;47.652;19.016;2022-07-03T06:15:14;100202.94;;;22.57;65.10
64683;BME280;51107;47.652;19.016;2022-07-03T06:17:42;100201.00;;;22.89;62.99
64683;BME280;51107;47.652;19.016;2022-07-03T06:20:12;100193.66;;;22.66;64.13
64683;BME280;51107;47.652;19.016;2022-07-03T06:22:41;100201.06;;;22.83;63.25
64683;BME280;51107;47.652;19.016;2022-07-03T06:25:10;100193.97;;;22.95;62.69
64683;BME280;51107;47.652;19.016;2022-07-03T06:27:38;100203.25;;;22.86;63.02
64683;BME280;51107;47.652;19.016;2022-07-03T06:30:07;100194.91;;;22.82;62.30
64683;BME280;51107;47.652;19.016;2022-07-03T06:32:35;100200.63;;;22.67;63.27
64683;BME280;51107;47.652;19.016;2022-07-03T06:35:05;100201.72;;;22.97;61.76
64683;BME280;51107;47.652;19.016;2022-07-03T06:37:33;100202.78;;;23.14;62.65
64683;BME280;51107;47.652;19.016;2022-07-03T06:40:02;100200.13;;;23.45;60.59
64683;BME280;51107;47.652;19.016;2022-07-03T06:42:30;100199.63;;;23.66;61.47
64683;BME280;51107;47.652;19.016;2022-07-03T06:44:58;100200.78;;;23.70;60.04
64683;BME280;51107;47.652;19.016;2022-07-03T06:47:27;100200.78;;;24.13;59.22
64683;BME280;51107;47.652;19.016;2022-07-03T06:49:55;100198.16;;;24.24;57.91
64683;BME280;51107;47.652;19.016;2022-07-03T06:52:23;100192.00;;;24.59;56.90
64683;BME280;51107;47.652;19.016;2022-07-03T06:54:52;100195.34;;;24.90;57.46
64683;BME280;51107;47.652;19.016;2022-07-03T06:57:20;100193.66;;;25.13;55.89
64683;BME280;51107;47.652;19.016;2022-07-03T06:59:48;100190.75;;;25.55;54.38
64683;BME280;51107;47.652;19.016;2022-07-03T07:02:17;100182.50;;;25.91;53.30
64683;BME280;51107;47.652;19.016;2022-07-03T07:04:45;100183.41;;;25.80;53.59
64683;BME280;51107;47.652;19.016;2022-07-03T07:07:14;100176.22;;;26.31;54.17
64683;BME280;51107;47.652;19.016;2022-07-03T07:09:42;100172.87;;;26.80;51.57
64683;BME280;51107;47.652;19.016;2022-07-03T07:12:11;100168.63;;;27.56;49.22
64683;BME280;51107;47.652;19.016;2022-07-03T07:14:39;100161.19;;;27.63;47.78
64683;BME280;51107;47.652;19.016;2022-07-03T07:17:08;100167.34;;;27.96;47.84
64683;BME280;51107;47.652;19.016;2022-07-03T07:19:36;100165.81;;;27.68;48.79
64683;BME280;51107;47.652;19.016;2022-07-03T07:22:04;100172.59;;;27.80;48.04
64683;BME280;51107;47.652;19.016;2022-07-03T07:24:33;100172.97;;;27.94;47.21
64683;BME280;51107;47.652;19.016;2022-07-03T07:27:01;100172.22;;;27.99;46.72
64683;BME280;51107;47.652;19.016;2022-07-03T07:29:29;100178.34;;;28.32;47.05
64683;BME280;51107;47.652;19.016;2022-07-03T07:31:58;100171.38;;;28.79;46.02
64683;BME280;51107;47.652;19.016;2022-07-03T07:34:26;100171.31;;;28.69;46.43
64683;BME280;51107;47.652;19.016;2022-07-03T07:36:54;100162.59;;;29.14;43.29
64683;BME280;51107;47.652;19.016;2022-07-03T07:39:23;100166.88;;;29.00;44.85
64683;BME280;51107;47.652;19.016;2022-07-03T07:41:51;100172.09;;;29.58;44.19
64683;BME280;51107;47.652;19.016;2022-07-03T07:44:19;100167.53;;;29.48;43.20
64683;BME280;51107;47.652;19.016;2022-07-03T07:46:49;100169.69;;;29.88;43.34
64683;BME280;51107;47.652;19.016;2022-07-03T07:49:17;100169.69;;;29.46;42.10
64683;BME280;51107;47.652;19.016;2022-07-03T07:51:45;100170.94;;;29.18;44.62
64683;BME280;51107;47.652;19.016;2022-07-03T07:54:14;100174.94;;;29.10;43.47
64683;BME280;51107;47.652;19.016;2022-07-03T07:56:42;100179.78;;;30.63;42.50
64683;BME280;51107;47.652;19.016;2022-07-03T07:59:10;100176.34;;;31.07;39.70
64683;BME280;51107;47.652;19.016;2022-07-03T08:01:39;100170.50;;;31.79;38.38
64683;BME280;51107;47.652;19.016;2022-07-03T08:04:26;100173.97;;;32.14;37.24
64683;BME280;51107;47.652;19.016;2022-07-03T08:07:13;100175.28;;;31.88;38.70
64683;BME280;51107;47.652;19.016;2022-07-03T08:09:41;100180.06;;;32.25;38.49
64683;BME280;51107;47.652;19.016;2022-07-03T08:12:10;100184.38;;;33.13;36.33
64683;BME280;51107;47.652;19.016;2022-07-03T08:14:38;100179.94;;;32.84;37.09
64683;BME280;51107;47.652;19.016;2022-07-03T08:17:07;100174.19;;;32.42;37.01
64683;BME280;51107;47.652;19.016;2022-07-03T08:19:35;100170.88;;;31.67;36.86
64683;BME280;51107;47.652;19.016;2022-07-03T08:22:03;100174.94;;;31.60;38.15
64683;BME280;51107;47.652;19.016;2022-07-03T08:24:32;100175.59;;;31.81;36.47
64683;BME280;51107;47.652;19.016;2022-07-03T08:27:00;100176.66;;;32.14;35.81
64683;BME280;51107;47.652;19.016;2022-07-03T08:29:28;100176.50;;;32.30;37.03
64683;BME280;51107;47.652;19.016;2022-07-03T08:32:07;100169.88;;;32.41;37.22
64683;BME280;51107;47.652;19.016;2022-07-03T08:34:35;100168.22;;;32.45;37.34
64683;BME280;51107;47.652;19.016;2022-07-03T08:37:04;100174.47;;;32.65;37.58
64683;BME280;51107;47.652;19.016;2022-07-03T08:39:32;100179.37;;;34.52;33.89
64683;BME280;51107;47.652;19.016;2022-07-03T08:42:01;100180.38;;;34.42;33.35
64683;BME280;51107;47.652;19.016;2022-07-03T08:44:30;100175.31;;;33.94;32.56
64683;BME280;51107;47.652;19.016;2022-07-03T08:47:00;100172.44;;;33.38;35.06
64683;BME280;51107;47.652;19.016;2022-07-03T08:49:31;100168.47;;;33.11;36.14
64683;BME280;51107;47.652;19.016;2022-07-03T08:52:00;100174.31;;;32.32;34.53
64683;BME280;51107;47.652;19.016;2022-07-03T08:54:29;100172.87;;;32.88;33.91
64683;BME280;51107;47.652;19.016;2022-07-03T08:57:02;100155.50;;;32.51;33.30
64683;BME280;51107;47.652;19.016;2022-07-03T08:59:36;100164.00;;;32.82;34.26
64683;BME280;51107;47.652;19.016;2022-07-03T09:02:06;100160.88;;;33.84;31.25
64683;BME280;51107;47.652;19.016;2022-07-03T09:04:34;100156.31;;;33.66;30.77
64683;BME280;51107;47.652;19.016;2022-07-03T09:07:06;100152.19;;;33.55;31.48
64683;BME280;51107;47.652;19.016;2022-07-03T09:09:35;100157.41;;;32.94;32.72
64683;BME280;51107;47.652;19.016;2022-07-03T09:12:04;100149.00;;;32.52;34.10
64683;BME280;51107;47.652;19.016;2022-07-03T09:14:32;100148.50;;;32.26;33.77
64683;BME280;51107;47.652;19.016;2022-07-03T09:17:01;100144.78;;;33.08;31.98
64683;BME280;51107;47.652;19.016;2022-07-03T09:19:46;100141.84;;;33.05;31.33
64683;BME280;51107;47.652;19.016;2022-07-03T09:22:31;100136.78;;;32.60;31.74
64683;BME280;51107;47.652;19.016;2022-07-03T09:27:31;100133.84;;;33.18;30.80
64683;BME280;51107;47.652;19.016;2022-07-03T09:30:07;100131.47;;;33.50;29.65
64683;BME280;51107;47.652;19.016;2022-07-03T09:35:19;100129.53;;;33.17;32.08
64683;BME280;51107;47.652;19.016;2022-07-03T09:37:58;100130.03;;;33.00;30.66
64683;BME280;51107;47.652;19.016;2022-07-03T09:40:52;100129.47;;;32.84;30.92
64683;BME280;51107;47.652;19.016;2022-07-03T09:43:30;100127.81;;;32.64;31.28
64683;BME280;51107;47.652;19.016;2022-07-03T09:46:01;100121.16;;;33.00;31.18
64683;BME280;51107;47.652;19.016;2022-07-03T09:51:09;100113.03;;;33.19;30.55
64683;BME280;51107;47.652;19.016;2022-07-03T09:53:56;100113.00;;;33.24;30.92
64683;BME280;51107;47.652;19.016;2022-07-03T09:59:21;100107.56;;;32.67;33.92
64683;BME280;51107;47.652;19.016;2022-07-03T10:01:49;100116.56;;;32.81;33.64
64683;BME280;51107;47.652;19.016;2022-07-03T10:04:20;100107.31;;;32.88;32.62
64683;BME280;51107;47.652;19.016;2022-07-03T10:06:56;100104.97;;;32.81;32.36
64683;BME280;51107;47.652;19.016;2022-07-03T10:09:29;100108.59;;;32.28;32.48
64683;BME280;51107;47.652;19.016;2022-07-03T10:11:59;100104.38;;;33.03;32.65
64683;BME280;51107;47.652;19.016;2022-07-03T10:14:30;100093.38;;;32.99;30.76
64683;BME280;51107;47.652;19.016;2022-07-03T10:16:59;100091.28;;;33.62;31.74
64683;BME280;51107;47.652;19.016;2022-07-03T10:19:30;100098.94;;;33.41;31.77
64683;BME280;51107;47.652;19.016;2022-07-03T10:22:09;100095.81;;;33.15;31.61
64683;BME280;51107;47.652;19.016;2022-07-03T10:24:47;100086.78;;;33.25;31.67
64683;BME280;51107;47.652;19.016;2022-07-03T10:27:15;100083.47;;;32.32;31.87
64683;BME280;51107;47.652;19.016;2022-07-03T10:29:44;100082.59;;;32.80;32.36
64683;BME280;51107;47.652;19.016;2022-07-03T10:32:14;100080.38;;;32.82;31.98
64683;BME280;51107;47.652;19.016;2022-07-03T10:34:42;100081.84;;;33.46;30.75
64683;BME280;51107;47.652;19.016;2022-07-03T10:37:17;100077.34;;;33.41;30.96
64683;BME280;51107;47.652;19.016;2022-07-03T10:40:08;100080.13;;;33.97;31.92
64683;BME280;51107;47.652;19.016;2022-07-03T10:43:02;100055.59;;;34.85;29.17
64683;BME280;51107;47.652;19.016;2022-07-03T10:46:09;100060.50;;;35.06;28.53
64683;BME280;51107;47.652;19.016;2022-07-03T10:48:59;100063.06;;;34.52;28.94
64683;BME280;51107;47.652;19.016;2022-07-03T10:51:30;100056.94;;;33.35;31.35
64683;BME280;51107;47.652;19.016;2022-07-03T10:54:26;100053.44;;;33.48;31.08
64683;BME280;51107;47.652;19.016;2022-07-03T11:12:54;100035.72;;;33.28;30.74
64683;BME280;51107;47.652;19.016;2022-07-03T11:18:28;100025.97;;;34.02;30.12
64683;BME280;51107;47.652;19.016;2022-07-03T11:24:23;100016.87;;;33.23;30.83
64683;BME280;51107;47.652;19.016;2022-07-03T11:27:21;100010.56;;;33.89;28.76
64683;BME280;51107;47.652;19.016;2022-07-03T11:29:55;100005.59;;;33.82;29.37
64683;BME280;51107;47.652;19.016;2022-07-03T11:32:47;100006.69;;;33.81;30.59
64683;BME280;51107;47.652;19.016;2022-07-03T11:38:26;100003.69;;;33.82;28.70
64683;BME280;51107;47.652;19.016;2022-07-03T11:40:58;100002.63;;;33.04;29.12
64683;BME280;51107;47.652;19.016;2022-07-03T11:43:28;100004.22;;;33.38;29.86
64683;BME280;51107;47.652;19.016;2022-07-03T11:45:57;99990.97;;;33.22;29.45
64683;BME280;51107;47.652;19.016;2022-07-03T11:48:26;99987.44;;;32.94;29.97
64683;BME280;51107;47.652;19.016;2022-07-03T11:51:03;99995.81;;;33.25;30.11
64683;BME280;51107;47.652;19.016;2022-07-03T11:53:34;99995.94;;;33.01;32.06
64683;BME280;51107;47.652;19.016;2022-07-03T11:56:11;99995.72;;;33.30;32.62
64683;BME280;51107;47.652;19.016;2022-07-03T12:03:50;99988.81;;;33.24;30.68
64683;BME280;51107;47.652;19.016;2022-07-03T12:06:19;99988.63;;;33.62;29.57
64683;BME280;51107;47.652;19.016;2022-07-03T12:08:48;99988.25;;;33.55;30.60
64683;BME280;51107;47.652;19.016;2022-07-03T12:11:17;99985.75;;;33.31;31.05
64683;BME280;51107;47.652;19.016;2022-07-03T12:13:45;99991.25;;;33.40;30.60
64683;BME280;51107;47.652;19.016;2022-07-03T12:16:14;99981.13;;;33.31;29.94
64683;BME280;51107;47.652;19.016;2022-07-03T12:18:45;99972.09;;;32.89;30.48
64683;BME280;51107;47.652;19.016;2022-07-03T12:21:14;99972.09;;;33.22;32.08
64683;BME280;51107;47.652;19.016;2022-07-03T12:23:54;99964.44;;;32.96;31.85
64683;BME280;51107;47.652;19.016;2022-07-03T12:26:29;99972.94;;;33.50;30.24
64683;BME280;51107;47.652;19.016;2022-07-03T12:29:04;99964.53;;;33.24;29.84
64683;BME280;51107;47.652;19.016;2022-07-03T12:31:33;99961.44;;;33.59;29.45
64683;BME280;51107;47.652;19.016;2022-07-03T12:34:02;99958.22;;;33.57;29.82
64683;BME280;51107;47.652;19.016;2022-07-03T12:36:31;99951.78;;;33.11;28.64
64683;BME280;51107;47.652;19.016;2022-07-03T12:38:59;99957.72;;;32.80;30.03
64683;BME280;51107;47.652;19.016;2022-07-03T12:41:31;99960.16;;;33.09;28.66
64683;BME280;51107;47.652;19.016;2022-07-03T12:43:59;99951.91;;;32.87;29.51
64683;BME280;51107;47.652;19.016;2022-07-03T12:46:34;99958.66;;;33.17;28.90
64683;BME280;51107;47.652;19.016;2022-07-03T12:49:11;99953.50;;;33.21;28.85
64683;BME280;51107;47.652;19.016;2022-07-03T12:51:40;99951.22;;;32.95;30.40
64683;BME280;51107;47.652;19.016;2022-07-03T12:54:15;99951.41;;;32.84;29.48
64683;BME280;51107;47.652;19.016;2022-07-03T12:56:43;99952.69;;;32.73;30.34
64683;BME280;51107;47.652;19.016;2022-07-03T12:59:28;99950.47;;;32.75;29.73
64683;BME280;51107;47.652;19.016;2022-07-03T13:02:04;99945.25;;;32.65;31.64
64683;BME280;51107;47.652;19.016;2022-07-03T13:04:35;99954.38;;;33.02;29.28
64683;BME280;51107;47.652;19.016;2022-07-03T13:07:07;99953.06;;;32.99;29.69
64683;BME280;51107;47.652;19.016;2022-07-03T13:09:36;99946.31;;;32.83;29.55
64683;BME280;51107;47.652;19.016;2022-07-03T13:12:05;99950.72;;;32.79;30.49
64683;BME280;51107;47.652;19.016;2022-07-03T13:14:33;99942.97;;;33.05;29.60
64683;BME280;51107;47.652;19.016;2022-07-03T13:17:02;99946.41;;;32.78;29.86
64683;BME280;51107;47.652;19.016;2022-07-03T13:19:31;99945.34;;;32.93;28.22
64683;BME280;51107;47.652;19.016;2022-07-03T13:21:59;99948.37;;;33.05;28.35
64683;BME280;51107;47.652;19.016;2022-07-03T13:24:28;99936.22;;;32.17;29.08
64683;BME280;51107;47.652;19.016;2022-07-03T13:26:56;99941.25;;;32.43;29.71
64683;BME280;51107;47.652;19.016;2022-07-03T13:29:26;99942.72;;;32.68;29.31
64683;BME280;51107;47.652;19.016;2022-07-03T13:31:55;99939.69;;;32.56;29.00
64683;BME280;51107;47.652;19.016;2022-07-03T13:34:23;99936.09;;;32.47;30.07
64683;BME280;51107;47.652;19.016;2022-07-03T13:36:52;99935.69;;;32.54;31.21
64683;BME280;51107;47.652;19.016;2022-07-03T13:39:20;99935.31;;;32.79;29.13
64683;BME280;51107;47.652;19.016;2022-07-03T13:41:48;99932.69;;;32.74;28.86
64683;BME280;51107;47.652;19.016;2022-07-03T13:44:17;99931.16;;;33.01;27.88
64683;BME280;51107;47.652;19.016;2022-07-03T13:46:45;99922.66;;;32.94;28.52
64683;BME280;51107;47.652;19.016;2022-07-03T13:49:18;99934.34;;;32.89;27.59
64683;BME280;51107;47.652;19.016;2022-07-03T13:51:47;99932.13;;;32.77;26.93
64683;BME280;51107;47.652;19.016;2022-07-03T13:54:16;99921.78;;;32.46;28.69
64683;BME280;51107;47.652;19.016;2022-07-03T13:56:44;99926.38;;;32.46;29.06
64683;BME280;51107;47.652;19.016;2022-07-03T13:59:13;99926.56;;;32.68;28.53
64683;BME280;51107;47.652;19.016;2022-07-03T14:01:41;99923.84;;;32.68;28.90
64683;BME280;51107;47.652;19.016;2022-07-03T14:04:10;99916.41;;;32.46;30.03
64683;BME280;51107;47.652;19.016;2022-07-03T14:06:38;99927.25;;;32.93;28.68
64683;BME280;51107;47.652;19.016;2022-07-03T14:09:07;99920.06;;;32.37;28.78